Αρχική σελίδα
METAR-TAF:

METAR-TAF

Αεροδρόμια :

Lae, Παπούα Νέα Γουινέα

γεωγραφικό πλάτος: 6-34-11S, γεωγραφικό μήκος: 146-43-34E, υψόμετρο: 73 μ

Παρών καιρός

Η αναφορά έγινε 27 λεπτά πριν, στις 01:00 UTC
Άνεμος 5 kt από Α/NA με ριπές μέχρι 10 kt
Θερμοκρασία 29°C
Υγρασία 74%
Πίεση 1011 hPa
Ορατότητα 10 χλμ και άνω
Διάσπαρτα νέφη σε ύψος 1500 πόδια
Διάσπαρτα νέφη σε ύψος 6000 πόδια

METAR: AYNZ 150100Z 12005G10KT 9999 SCT015 SCT060 29/24 Q1011

Χρόνος: 11:27 (01:27 UTC)


TAF: λείπει

Μετεωρολογικές αναφορές και προγνώσεις για περισσότερα από 4000 αεροδρόμια (δελτία METAR και TAF).

Οι διαθέσιμοι σταθμοί απεικονίζονται στο χάρτη με κίτρινες και κόκκινες κουκκίδες.

Μετακινήστε το ποντίκι πάνω από τις κουκκίδες για να δείτε το όνομα του σταθμού.

Στη συνέχεια, κάντε κλικ για να δείτε τις μετεωρολογικές αναφορές και τις προγνώσεις καιρού.

Για να αλλάξετε το χάρτη: κάντε κλικ στα πράσινα κουμπιά με τον μαύρο σταυρό για να ζουμάρετε, στο πράσινο κουμπί με την παύλα για να αφαιρέσετε το ζουμ ή στα πράσινα βέλη για να αντιπαραβάλλετε χάρτες.


METAR-TAF: